Aeroporto :
LOGIN :

Iscrizione | Disclaimer

   EN    FR    IT 

 










Sommario :    VFR   VFR Marginale   IFR   IFR Intensivo   IFR Molto Intensivo
Visibilità : 
Base nubi : 
>= 8 km
>= 3000ft
5 / 8 km
1000 / 3000 ft
1500m / 5 km
500 / 1000 ft
800 / 1500m
200 / 500 ft
< 800m
< 200 ft
Simboli :   Temporali  Nebbia  Neve Forte  Precipitazioni Forti  Vento > 20 kt
SIGMETs :   Varie  Temporali  Ghiacco  Turbolenza  Onda orograficha  Ceneri Vulcaniche






- Altitudine del aeroporto : 6 ft
- Codice IATA : CFU


LGKR - Corfu Kerkyra

ULTIMO METAR :
  • 072120Z 29007KT 9999 FEW030 14/11 Q1019 NOSIG

METARs OBSOLETI :
  • 072050Z 29007KT 9999 FEW030 14/11 Q1019 NOSIG
  • 072020Z 27004KT 9999 FEW030 14/12 Q1019 NOSIG
  • 071950Z 26004KT 9999 FEW030 14/12 Q1019 NOSIG
  • 071920Z 28003KT 9999 FEW030 14/12 Q1019 NOSIG
  • 071850Z 27006KT 9999 FEW030 14/12 Q1019 NOSIG

TAF TAF LGKR
Valido dal 07 a 18 ore il 08 a 18 ore UTC


071700Z 0718/0818 30014KT 9999 SCT020 BKN080
BECMG 0802/0804 VRB05KT



MetMap, La meteo Aeronautica in un colpo d'occhio ! - Copyright ORBIFLY Dicembre 2007 - Disclaimer

ORBIFLY MET'MAP TEAM :

Programmazione e sviluppo : Alexandra Zaïnal
Concezione : Baudouin d'Aumeries
Aiuto per la programmazione : Marc-Olivier Méhu
Supporto tecnico e logistico : Manuel Goepfert
Aiuto per la traduzione : Arnaldo La Scala

Contatto : metmap@orbifly.com




FONTI E CREDITI :

   NOAA